createdAt,value
2017-04-07T00:00:38.559Z,0
2017-04-07T00:01:47.448Z,0
2017-04-07T00:02:56.332Z,0
2017-04-07T00:04:05.592Z,0
2017-04-07T00:05:14.484Z,0
2017-04-07T00:06:24.317Z,0
2017-04-07T00:07:33.564Z,0
2017-04-07T00:08:42.453Z,0
2017-04-07T00:09:51.335Z,0
2017-04-07T00:11:00.549Z,0
2017-04-07T00:12:09.735Z,0
2017-04-07T00:13:18.623Z,0
2017-04-07T00:14:27.869Z,0
2017-04-07T00:15:36.762Z,0
2017-04-07T00:16:45.650Z,0
2017-04-07T00:17:54.683Z,0
2017-04-07T00:19:03.573Z,0
2017-04-07T00:20:12.785Z,0
2017-04-07T00:21:21.996Z,0
2017-04-07T00:22:30.888Z,0
2017-04-07T00:23:40.174Z,0
2017-04-07T00:24:49.064Z,0
2017-04-07T00:25:57.946Z,0
2017-04-07T00:27:07.481Z,0
2017-04-07T00:28:16.370Z,0
2017-04-07T00:29:25.303Z,0
2017-04-07T00:30:34.191Z,0
2017-04-07T00:31:43.081Z,0
2017-04-07T00:32:51.962Z,0
2017-04-07T00:34:00.845Z,0
2017-04-07T00:35:10.126Z,0
2017-04-07T00:36:19.339Z,0
2017-04-07T00:37:28.547Z,0
2017-04-07T00:38:37.430Z,0
2017-04-07T00:39:46.325Z,0
2017-04-07T00:40:55.781Z,0
2017-04-07T00:42:04.671Z,0
2017-04-07T00:43:13.555Z,0
2017-04-07T00:44:22.445Z,0
2017-04-07T00:45:31.357Z,0
2017-04-07T00:46:40.928Z,0
2017-04-07T00:47:49.813Z,0
2017-04-07T00:48:58.697Z,0
2017-04-07T00:50:08.242Z,0
2017-04-07T00:51:17.447Z,0
2017-04-07T00:52:26.384Z,0
2017-04-07T00:53:35.274Z,0
2017-04-07T00:54:44.480Z,0
2017-04-07T00:55:53.365Z,0
2017-04-07T00:57:02.259Z,0
2017-04-07T00:58:11.147Z,0
2017-04-07T00:59:20.677Z,0
2017-04-07T01:00:29.564Z,0
2017-04-07T01:01:38.486Z,0
2017-04-07T01:02:47.373Z,0
2017-04-07T01:03:56.730Z,0
2017-04-07T01:05:05.621Z,0
2017-04-07T01:06:14.503Z,0
2017-04-07T01:07:23.387Z,0
2017-04-07T01:08:32.599Z,0
2017-04-07T01:09:42.114Z,0
2017-04-07T01:10:51.325Z,0
2017-04-07T01:12:00.212Z,0
2017-04-07T01:13:09.109Z,0
2017-04-07T01:14:18.026Z,0
2017-04-07T01:15:27.488Z,0
2017-04-07T01:16:36.370Z,0
2017-04-07T01:17:45.259Z,0
2017-04-07T01:18:54.143Z,0
2017-04-07T01:20:03.379Z,0
2017-04-07T01:21:12.266Z,0
2017-04-07T01:22:21.150Z,0
2017-04-07T01:23:30.359Z,0
2017-04-07T01:24:39.251Z,0
2017-04-07T01:25:48.131Z,0
2017-04-07T01:26:57.019Z,0
2017-04-07T01:28:05.905Z,0
2017-04-07T01:29:14.792Z,0
2017-04-07T01:30:23.712Z,0
2017-04-07T01:31:32.597Z,0
2017-04-07T01:32:41.584Z,0
2017-04-07T01:33:50.501Z,0
2017-04-07T01:34:59.401Z,0
2017-04-07T01:36:08.613Z,0
2017-04-07T01:37:17.496Z,0
2017-04-07T01:38:26.532Z,0
2017-04-07T01:39:35.416Z,0
2017-04-07T01:40:44.304Z,0
2017-04-07T01:41:53.188Z,0
2017-04-07T01:43:02.399Z,0
2017-04-07T01:44:11.291Z,0
2017-04-07T01:45:20.183Z,0
2017-04-07T01:46:29.398Z,0
2017-04-07T01:47:38.281Z,0
2017-04-07T01:48:47.491Z,0
2017-04-07T01:49:56.531Z,0
2017-04-07T01:51:05.775Z,0
2017-04-07T01:52:14.659Z,0
2017-04-07T01:53:23.540Z,0
2017-04-07T01:54:32.423Z,0
2017-04-07T01:55:41.457Z,0
2017-04-07T01:56:50.665Z,0
2017-04-07T01:57:59.552Z,0
2017-04-07T01:59:08.438Z,0
2017-04-07T02:00:17.323Z,0
2017-04-07T02:01:26.637Z,0
2017-04-07T02:02:35.521Z,0
2017-04-07T02:03:44.402Z,0
2017-04-07T02:04:53.288Z,0
2017-04-07T02:06:02.178Z,0
2017-04-07T02:07:11.066Z,0
2017-04-07T02:08:19.950Z,0
2017-04-07T02:09:28.836Z,0
2017-04-07T02:10:38.052Z,0
2017-04-07T02:11:46.939Z,0
2017-04-07T02:12:56.547Z,0
2017-04-07T02:14:05.431Z,0
2017-04-07T02:15:14.646Z,0
2017-04-07T02:16:23.532Z,0
2017-04-07T02:17:32.430Z,0
2017-04-07T02:18:41.566Z,0
2017-04-07T02:19:50.447Z,0
2017-04-07T02:20:59.662Z,0
2017-04-07T02:22:08.877Z,0
2017-04-07T02:23:18.415Z,0
2017-04-07T02:24:27.708Z,0
2017-04-07T02:25:36.595Z,0
2017-04-07T02:26:45.481Z,0
2017-04-07T02:27:54.367Z,0
2017-04-07T02:29:03.247Z,0
2017-04-07T02:30:12.616Z,0
2017-04-07T02:31:21.507Z,0
2017-04-07T02:32:30.716Z,0
2017-04-07T02:33:39.930Z,0
2017-04-07T02:34:49.142Z,0
2017-04-07T02:35:58.681Z,0
2017-04-07T02:37:07.892Z,0
2017-04-07T02:38:16.775Z,0
2017-04-07T02:39:25.989Z,0
2017-04-07T02:40:34.879Z,0
2017-04-07T02:41:44.243Z,0
2017-04-07T02:42:53.131Z,0
2017-04-07T02:44:02.013Z,0
2017-04-07T02:45:10.917Z,0
2017-04-07T02:46:19.812Z,0
2017-04-07T02:47:29.028Z,0
2017-04-07T02:48:37.921Z,0
2017-04-07T02:49:46.808Z,0
2017-04-07T02:50:55.727Z,0
2017-04-07T02:52:04.939Z,0
2017-04-07T02:53:14.185Z,0
2017-04-07T02:54:23.079Z,0
2017-04-07T02:55:31.963Z,0
2017-04-07T02:56:41.171Z,0
2017-04-07T02:57:50.059Z,0
2017-04-07T02:58:59.370Z,0
2017-04-07T03:00:08.912Z,0
2017-04-07T03:01:17.802Z,0
2017-04-07T03:02:26.690Z,0
2017-04-07T03:03:35.907Z,0
2017-04-07T03:04:45.520Z,0
2017-04-07T03:05:54.410Z,0
2017-04-07T03:07:03.302Z,0
2017-04-07T03:08:12.838Z,0
2017-04-07T03:09:21.722Z,0
2017-04-07T03:10:30.608Z,0
2017-04-07T03:11:39.824Z,0
2017-04-07T03:12:49.037Z,0
2017-04-07T03:13:57.919Z,0
2017-04-07T03:15:06.810Z,0
2017-04-07T03:16:16.125Z,0
2017-04-07T03:17:25.016Z,0
2017-04-07T03:18:33.907Z,0
2017-04-07T03:19:43.127Z,0
2017-04-07T03:20:52.337Z,0
2017-04-07T03:22:01.323Z,0
2017-04-07T03:23:10.211Z,0
2017-04-07T03:24:19.094Z,0
2017-04-07T03:25:28.020Z,0
2017-04-07T03:26:36.916Z,0
2017-04-07T03:27:46.175Z,0
2017-04-07T03:28:55.069Z,0
2017-04-07T03:30:03.953Z,0
2017-04-07T03:31:12.845Z,0
2017-04-07T03:32:21.730Z,0
2017-04-07T03:33:30.769Z,0
2017-04-07T03:34:39.656Z,0
2017-04-07T03:35:48.541Z,0
2017-04-07T03:36:57.425Z,0
2017-04-07T03:38:06.312Z,0
2017-04-07T03:39:15.351Z,0
2017-04-07T03:40:24.262Z,0
2017-04-07T03:41:33.470Z,0
2017-04-07T03:42:42.356Z,0
2017-04-07T03:43:51.243Z,0
2017-04-07T03:45:00.501Z,0
2017-04-07T03:46:09.713Z,0
2017-04-07T03:47:19.248Z,0
2017-04-07T03:48:28.133Z,0
2017-04-07T03:49:37.018Z,0
2017-04-07T03:50:46.381Z,0
2017-04-07T03:51:55.278Z,0
2017-04-07T03:53:04.165Z,0
2017-04-07T03:54:13.695Z,0
2017-04-07T03:55:22.577Z,0
2017-04-07T03:56:32.269Z,0
2017-04-07T03:57:41.158Z,0
2017-04-07T03:58:50.048Z,0
2017-04-07T03:59:58.935Z,0
2017-04-07T04:01:07.818Z,0
2017-04-07T04:02:17.026Z,0
2017-04-07T04:03:25.910Z,0
2017-04-07T04:04:34.794Z,0
2017-04-07T04:05:43.684Z,0
2017-04-07T04:06:52.579Z,0
2017-04-07T04:08:01.567Z,0
2017-04-07T04:09:10.451Z,0
2017-04-07T04:10:19.665Z,0
2017-04-07T04:11:28.872Z,0
2017-04-07T04:12:37.756Z,0
2017-04-07T04:13:46.948Z,0
2017-04-07T04:14:56.496Z,4
2017-04-07T04:16:05.704Z,4
2017-04-07T04:17:14.586Z,4
2017-04-07T04:18:23.470Z,4
2017-04-07T04:19:32.608Z,4
2017-04-07T04:20:41.496Z,8
2017-04-07T04:21:50.707Z,4
2017-04-07T04:22:59.592Z,4
2017-04-07T04:24:08.483Z,12
2017-04-07T04:25:17.520Z,12
2017-04-07T04:26:26.412Z,12
2017-04-07T04:27:35.624Z,16
2017-04-07T04:28:44.514Z,20
2017-04-07T04:29:53.721Z,24
2017-04-07T04:31:02.663Z,24
2017-04-07T04:32:11.558Z,28
2017-04-07T04:33:20.444Z,32
2017-04-07T04:34:29.656Z,36
2017-04-07T04:35:38.553Z,44
2017-04-07T04:36:47.440Z,48
2017-04-07T04:37:56.328Z,56
2017-04-07T04:39:05.220Z,64
2017-04-07T04:40:14.432Z,64
2017-04-07T04:41:23.646Z,72
2017-04-07T04:42:32.785Z,80
2017-04-07T04:43:41.670Z,88
2017-04-07T04:44:50.879Z,100
2017-04-07T04:46:00.099Z,108
2017-04-07T04:47:08.997Z,120
2017-04-07T04:48:18.206Z,132
2017-04-07T04:49:27.458Z,136
2017-04-07T04:50:36.347Z,156
2017-04-07T04:51:45.559Z,168
2017-04-07T04:52:54.442Z,188
2017-04-07T04:54:03.335Z,196
2017-04-07T04:55:12.220Z,212
2017-04-07T04:56:21.108Z,228
2017-04-07T04:57:29.994Z,240
2017-04-07T04:58:39.026Z,248
2017-04-07T04:59:48.237Z,240
2017-04-07T05:00:57.122Z,252
2017-04-07T05:02:06.335Z,256
2017-04-07T05:03:15.544Z,284
2017-04-07T05:04:25.003Z,320
2017-04-07T05:05:33.887Z,348
2017-04-07T05:06:42.778Z,380
2017-04-07T05:07:51.687Z,400
2017-04-07T05:09:00.574Z,396
2017-04-07T05:10:09.941Z,428
2017-04-07T05:11:18.830Z,472
2017-04-07T05:12:27.716Z,508
2017-04-07T05:13:36.602Z,528
2017-04-07T05:14:45.498Z,528
2017-04-07T05:15:55.185Z,584
2017-04-07T05:17:04.117Z,596
2017-04-07T05:18:13.002Z,628
2017-04-07T05:19:21.886Z,700
2017-04-07T05:20:30.779Z,820
2017-04-07T05:21:40.575Z,984
2017-04-07T05:22:49.467Z,1080
2017-04-07T05:23:58.675Z,1100
2017-04-07T05:25:07.561Z,1036
2017-04-07T05:26:16.451Z,964
2017-04-07T05:27:25.589Z,1084
2017-04-07T05:28:34.473Z,1144
2017-04-07T05:29:43.366Z,1248
2017-04-07T05:30:52.256Z,1344
2017-04-07T05:32:01.153Z,1356
2017-04-07T05:33:10.189Z,1396
2017-04-07T05:34:19.074Z,1376
2017-04-07T05:35:28.283Z,1496
2017-04-07T05:36:37.171Z,1556
2017-04-07T05:37:46.057Z,1560
2017-04-07T05:38:55.095Z,1712
2017-04-07T05:40:03.982Z,1764
2017-04-07T05:41:12.869Z,1764
2017-04-07T05:42:22.077Z,1844
2017-04-07T05:43:30.967Z,1888
2017-04-07T05:44:40.478Z,1876
2017-04-07T05:45:49.688Z,1980
2017-04-07T05:46:58.577Z,2200
2017-04-07T05:48:07.791Z,2160
2017-04-07T05:49:17.004Z,2260
2017-04-07T05:50:26.225Z,2408
2017-04-07T05:51:35.123Z,2548
2017-04-07T05:52:44.016Z,2488
2017-04-07T05:53:52.903Z,2348
2017-04-07T05:55:01.790Z,2296
2017-04-07T05:56:10.881Z,2356
2017-04-07T05:57:19.769Z,2336
2017-04-07T05:58:28.654Z,2464
2017-04-07T05:59:37.546Z,2416
2017-04-07T06:00:46.431Z,2328
2017-04-07T06:01:55.566Z,2384
2017-04-07T06:03:04.462Z,2444
2017-04-07T06:04:13.678Z,2804
2017-04-07T06:05:22.600Z,2920
2017-04-07T06:06:31.812Z,3140
2017-04-07T06:07:40.956Z,3132
2017-04-07T06:08:49.844Z,3244
2017-04-07T06:09:58.730Z,3260
2017-04-07T06:11:07.618Z,3248
2017-04-07T06:12:16.508Z,3260
2017-04-07T06:13:25.442Z,3136
2017-04-07T06:14:34.329Z,3308
2017-04-07T06:15:43.216Z,3112
2017-04-07T06:16:52.751Z,3216
2017-04-07T06:18:01.642Z,3652
2017-04-07T06:19:10.682Z,3764
2017-04-07T06:20:19.566Z,3820
2017-04-07T06:21:28.785Z,3872
2017-04-07T06:22:37.673Z,4112
2017-04-07T06:23:46.559Z,4352
2017-04-07T06:24:55.450Z,4468
2017-04-07T06:26:04.340Z,4476
2017-04-07T06:27:13.232Z,4504
2017-04-07T06:28:22.446Z,4672
2017-04-07T06:29:31.339Z,4528
2017-04-07T06:30:40.436Z,4496
2017-04-07T06:31:49.330Z,4664
2017-04-07T06:32:58.213Z,4864
2017-04-07T06:34:07.431Z,4868
2017-04-07T06:35:16.643Z,5212
2017-04-07T06:36:26.020Z,5320
2017-04-07T06:37:34.909Z,5032
2017-04-07T06:38:43.791Z,4728
2017-04-07T06:39:52.676Z,4616
2017-04-07T06:41:01.569Z,4804
2017-04-07T06:42:10.461Z,5356
2017-04-07T06:43:19.349Z,4904
2017-04-07T06:44:28.236Z,4740
2017-04-07T06:45:37.776Z,4788
2017-04-07T06:46:46.678Z,4876
2017-04-07T06:47:55.716Z,4756
2017-04-07T06:49:04.649Z,4556
2017-04-07T06:50:13.542Z,4908
2017-04-07T06:51:22.437Z,4704
2017-04-07T06:52:31.667Z,5040
2017-04-07T06:53:40.558Z,5736
2017-04-07T06:54:49.772Z,5740
2017-04-07T06:55:58.989Z,5344
2017-04-07T06:57:08.209Z,5444
2017-04-07T06:58:17.102Z,5828
2017-04-07T06:59:26.137Z,5712
2017-04-07T07:00:35.351Z,5540
2017-04-07T07:01:44.237Z,5580
2017-04-07T07:02:53.128Z,5808
2017-04-07T07:04:02.019Z,6808
2017-04-07T07:05:11.639Z,6736
2017-04-07T07:06:20.531Z,7020
2017-04-07T07:07:29.416Z,6836
2017-04-07T07:08:38.317Z,7036
2017-04-07T07:09:47.209Z,7284
2017-04-07T07:10:56.419Z,7248
2017-04-07T07:12:05.310Z,7268
2017-04-07T07:13:14.198Z,7248
2017-04-07T07:14:23.088Z,7336
2017-04-07T07:15:31.981Z,7548
2017-04-07T07:16:41.395Z,7244
2017-04-07T07:17:50.287Z,7504
2017-04-07T07:18:59.176Z,7704
2017-04-07T07:20:08.064Z,7684
2017-04-07T07:21:17.278Z,7576
2017-04-07T07:22:26.493Z,7812
2017-04-07T07:23:35.387Z,7748
2017-04-07T07:24:44.605Z,7808
2017-04-07T07:25:53.833Z,7888
2017-04-07T07:27:02.722Z,7896
2017-04-07T07:28:12.094Z,7804
2017-04-07T07:29:20.981Z,7116
2017-04-07T07:30:30.202Z,6536
2017-04-07T07:31:39.472Z,6208
2017-04-07T07:32:48.360Z,7584
2017-04-07T07:33:58.058Z,8920
2017-04-07T07:35:06.944Z,8920
2017-04-07T07:36:15.838Z,8844
2017-04-07T07:37:24.734Z,8936
2017-04-07T07:38:33.946Z,8552
2017-04-07T07:39:42.890Z,8136
2017-04-07T07:40:52.104Z,8308
2017-04-07T07:42:01.316Z,8540
2017-04-07T07:43:10.205Z,8500
2017-04-07T07:44:19.094Z,8120
2017-04-07T07:45:28.284Z,7172
2017-04-07T07:46:37.170Z,6228
2017-04-07T07:47:46.056Z,5004
2017-04-07T07:48:54.957Z,4440
2017-04-07T07:50:04.499Z,4016
2017-04-07T07:51:13.813Z,4224
2017-04-07T07:52:22.700Z,4120
2017-04-07T07:53:31.590Z,4116
2017-04-07T07:54:40.798Z,4232
2017-04-07T07:55:49.691Z,4340
2017-04-07T07:56:58.735Z,4376
2017-04-07T07:58:07.627Z,4448
2017-04-07T07:59:16.512Z,4420
2017-04-07T08:00:25.723Z,4164
2017-04-07T08:01:34.619Z,3892
2017-04-07T08:02:43.981Z,3784
2017-04-07T08:03:52.869Z,4324
2017-04-07T08:05:01.759Z,5128
2017-04-07T08:06:10.647Z,5456
2017-04-07T08:07:19.532Z,4640
2017-04-07T08:08:28.999Z,4952
2017-04-07T08:09:38.207Z,5260
2017-04-07T08:10:47.092Z,6460
2017-04-07T08:11:55.984Z,6928
2017-04-07T08:13:04.876Z,7316
2017-04-07T08:14:14.285Z,7608
2017-04-07T08:15:23.174Z,5648
2017-04-07T08:16:32.066Z,4896
2017-04-07T08:17:40.955Z,5972
2017-04-07T08:18:49.845Z,4288
2017-04-07T08:19:58.782Z,4508
2017-04-07T08:21:08.023Z,4276
2017-04-07T08:22:16.910Z,4156
2017-04-07T08:23:25.803Z,4136
2017-04-07T08:24:34.695Z,4048
2017-04-07T08:25:43.832Z,4012
2017-04-07T08:26:52.723Z,4256
2017-04-07T08:28:01.610Z,4024
2017-04-07T08:29:10.827Z,4016
2017-04-07T08:30:19.724Z,3992
2017-04-07T08:31:28.760Z,4008
2017-04-07T08:32:37.969Z,3924
2017-04-07T08:33:46.862Z,3696
2017-04-07T08:34:55.748Z,4300
2017-04-07T08:36:04.637Z,4288
2017-04-07T08:37:14.053Z,3664
2017-04-07T08:38:23.271Z,3876
2017-04-07T08:39:32.164Z,4268
2017-04-07T08:40:41.056Z,4436
2017-04-07T08:41:49.952Z,5144
2017-04-07T08:42:59.313Z,5188
2017-04-07T08:44:08.528Z,6244
2017-04-07T08:45:17.417Z,4768
2017-04-07T08:46:26.958Z,4796
2017-04-07T08:47:35.846Z,5144
2017-04-07T08:48:45.113Z,5288
2017-04-07T08:49:54.002Z,5056
2017-04-07T08:51:02.890Z,5276
2017-04-07T08:52:11.785Z,5176
2017-04-07T08:53:21.000Z,4688
2017-04-07T08:54:30.267Z,4504
2017-04-07T08:55:39.167Z,4784
2017-04-07T08:56:48.380Z,5460
2017-04-07T08:57:57.268Z,4912
2017-04-07T08:59:06.157Z,4880
2017-04-07T09:00:15.525Z,5064
2017-04-07T09:01:24.737Z,5364
2017-04-07T09:02:33.628Z,6172
2017-04-07T09:03:42.842Z,6472
2017-04-07T09:04:51.730Z,6652
2017-04-07T09:06:01.202Z,7424
2017-04-07T09:07:10.431Z,8956
2017-04-07T09:08:19.318Z,11376
2017-04-07T09:09:28.537Z,13996
2017-04-07T09:10:37.433Z,14940
2017-04-07T09:11:46.516Z,15200
2017-04-07T09:12:55.412Z,13732
2017-04-07T09:14:04.625Z,11860
2017-04-07T09:15:13.516Z,9464
2017-04-07T09:16:22.407Z,11812
2017-04-07T09:17:31.445Z,14176
2017-04-07T09:18:40.665Z,14028
2017-04-07T09:19:49.875Z,12964
2017-04-07T09:20:58.770Z,11940
2017-04-07T09:22:08.311Z,9680
2017-04-07T09:23:17.578Z,9908
2017-04-07T09:24:26.472Z,11168
2017-04-07T09:25:35.361Z,10868
2017-04-07T09:26:44.254Z,11632
2017-04-07T09:27:53.156Z,12616
2017-04-07T09:29:02.339Z,10568
2017-04-07T09:30:11.604Z,12176
2017-04-07T09:31:20.819Z,14504
2017-04-07T09:32:29.721Z,14272
2017-04-07T09:33:38.934Z,13356
2017-04-07T09:34:48.127Z,10720
2017-04-07T09:35:57.015Z,11792
2017-04-07T09:37:05.913Z,10592
2017-04-07T09:38:14.810Z,8828
2017-04-07T09:39:23.706Z,8888
2017-04-07T09:40:32.701Z,12148
2017-04-07T09:41:41.590Z,10844
2017-04-07T09:42:50.818Z,9208
2017-04-07T09:43:59.705Z,7944
2017-04-07T09:45:08.600Z,10528
2017-04-07T09:46:17.943Z,14120
2017-04-07T09:47:27.161Z,13304
2017-04-07T09:48:36.377Z,13556
2017-04-07T09:49:45.594Z,12436
2017-04-07T09:50:54.484Z,12940
2017-04-07T09:52:03.764Z,12992
2017-04-07T09:53:12.665Z,14528
2017-04-07T09:54:21.554Z,15684
2017-04-07T09:55:30.446Z,18080
2017-04-07T09:56:39.366Z,17440
2017-04-07T09:57:48.304Z,16768
2017-04-07T09:58:57.202Z,16800
2017-04-07T10:00:06.429Z,16896
2017-04-07T10:01:15.321Z,15776
2017-04-07T10:02:24.214Z,15360
2017-04-07T10:03:33.253Z,15140
2017-04-07T10:04:42.155Z,13576
2017-04-07T10:05:51.046Z,10988
2017-04-07T10:06:59.941Z,10188
2017-04-07T10:08:08.839Z,8616
2017-04-07T10:09:18.352Z,8060
2017-04-07T10:10:27.245Z,7492
2017-04-07T10:11:36.135Z,8368
2017-04-07T10:12:45.031Z,9600
2017-04-07T10:13:54.245Z,9076
2017-04-07T10:15:03.865Z,8056
2017-04-07T10:16:12.759Z,6872
2017-04-07T10:17:21.650Z,6776
2017-04-07T10:18:30.549Z,6608
2017-04-07T10:19:39.477Z,7984
2017-04-07T10:20:49.066Z,8644
2017-04-07T10:21:58.289Z,7988
2017-04-07T10:23:07.511Z,7368
2017-04-07T10:24:16.407Z,6564
2017-04-07T10:25:25.298Z,6776
2017-04-07T10:26:34.191Z,7964
2017-04-07T10:27:43.087Z,7992
2017-04-07T10:28:51.977Z,7148
2017-04-07T10:30:00.866Z,7544
2017-04-07T10:31:10.098Z,7808
2017-04-07T10:32:19.190Z,7916
2017-04-07T10:33:28.403Z,7820
2017-04-07T10:34:37.618Z,8348
2017-04-07T10:35:46.512Z,7224
2017-04-07T10:36:55.729Z,6152
2017-04-07T10:38:04.623Z,5848
2017-04-07T10:39:13.516Z,7192
2017-04-07T10:40:22.455Z,6312
2017-04-07T10:41:31.347Z,5336
2017-04-07T10:42:40.569Z,5724
2017-04-07T10:43:49.605Z,5712
2017-04-07T10:44:58.500Z,5864
2017-04-07T10:46:07.720Z,6396
2017-04-07T10:47:16.644Z,5872
2017-04-07T10:48:25.535Z,5680
2017-04-07T10:49:34.829Z,6708
2017-04-07T10:50:44.042Z,5760
2017-04-07T10:51:53.266Z,5728
2017-04-07T10:53:02.157Z,5784
2017-04-07T10:54:11.047Z,5580
2017-04-07T10:55:19.994Z,6624
2017-04-07T10:56:28.885Z,7488
2017-04-07T10:57:38.113Z,8300
2017-04-07T10:58:47.328Z,8108
2017-04-07T10:59:56.216Z,7944
2017-04-07T11:01:05.266Z,9028
2017-04-07T11:02:14.483Z,9892
2017-04-07T11:03:23.377Z,8904
2017-04-07T11:04:32.591Z,9172
2017-04-07T11:05:41.804Z,8340
2017-04-07T11:06:50.852Z,9104
2017-04-07T11:07:59.753Z,8532
2017-04-07T11:09:09.298Z,9416
2017-04-07T11:10:18.187Z,10868
2017-04-07T11:11:27.085Z,11440
2017-04-07T11:12:36.224Z,11080
2017-04-07T11:13:45.111Z,11220
2017-04-07T11:14:54.014Z,11984
2017-04-07T11:16:02.909Z,11708
2017-04-07T11:17:12.134Z,9648
2017-04-07T11:18:21.075Z,8136
2017-04-07T11:19:30.292Z,7708
2017-04-07T11:20:39.505Z,8672
2017-04-07T11:21:48.721Z,10408
2017-04-07T11:22:57.935Z,13360
2017-04-07T11:24:07.076Z,14416
2017-04-07T11:25:15.971Z,13152
2017-04-07T11:26:24.861Z,12172
2017-04-07T11:27:33.750Z,11556
2017-04-07T11:28:42.643Z,14768
2017-04-07T11:29:51.681Z,15520
2017-04-07T11:31:00.899Z,14392
2017-04-07T11:32:09.789Z,13552
2017-04-07T11:33:18.680Z,15380
2017-04-07T11:34:27.573Z,15592
2017-04-07T11:35:36.620Z,15240
2017-04-07T11:36:45.515Z,14888
2017-04-07T11:37:54.734Z,14988
2017-04-07T11:39:03.972Z,15220
2017-04-07T11:40:12.866Z,16032
2017-04-07T11:41:21.811Z,13236
2017-04-07T11:42:30.703Z,15132
2017-04-07T11:43:39.595Z,16352
2017-04-07T11:44:48.488Z,15592
2017-04-07T11:45:57.379Z,16148
2017-04-07T11:47:06.521Z,17152
2017-04-07T11:48:15.747Z,17280
2017-04-07T11:49:24.636Z,18016
2017-04-07T11:50:33.526Z,18368
2017-04-07T11:51:42.420Z,18496
2017-04-07T11:52:51.738Z,17632
2017-04-07T11:54:00.955Z,17504
2017-04-07T11:55:10.498Z,18144
2017-04-07T11:56:19.391Z,20480
2017-04-07T11:57:28.285Z,21984
2017-04-07T11:58:37.651Z,22400
2017-04-07T11:59:46.867Z,22144
2017-04-07T12:00:55.760Z,22784
2017-04-07T12:02:04.988Z,24128
2017-04-07T12:03:13.885Z,26048
2017-04-07T12:04:23.204Z,29152
2017-04-07T12:05:32.424Z,30304
2017-04-07T12:06:41.322Z,27360
2017-04-07T12:07:50.214Z,25760
2017-04-07T12:08:59.110Z,23552
2017-04-07T12:10:08.385Z,22144
2017-04-07T12:11:17.281Z,19008
2017-04-07T12:12:26.176Z,17216
2017-04-07T12:13:35.071Z,16768
2017-04-07T12:14:43.976Z,17088
2017-04-07T12:15:53.267Z,17632
2017-04-07T12:17:02.819Z,18144
2017-04-07T12:18:12.371Z,15808
2017-04-07T12:19:21.589Z,15964
2017-04-07T12:20:30.484Z,16360
2017-04-07T12:21:39.863Z,18176
2017-04-07T12:22:48.759Z,17280
2017-04-07T12:23:57.988Z,17344
2017-04-07T12:25:06.922Z,18240
2017-04-07T12:26:15.820Z,18912
2017-04-07T12:27:24.865Z,18560
2017-04-07T12:28:34.418Z,16308
2017-04-07T12:29:43.642Z,15076
2017-04-07T12:30:52.537Z,16092
2017-04-07T12:32:01.765Z,17376
2017-04-07T12:33:11.462Z,16512
2017-04-07T12:34:20.689Z,15404
2017-04-07T12:35:30.232Z,15116
2017-04-07T12:36:39.125Z,13808
2017-04-07T12:37:48.025Z,14312
2017-04-07T12:38:57.352Z,13988
2017-04-07T12:40:06.578Z,14748
2017-04-07T12:41:15.472Z,15228
2017-04-07T12:42:25.023Z,15332
2017-04-07T12:43:34.601Z,15448
2017-04-07T12:44:44.299Z,17120
2017-04-07T12:45:53.519Z,19040
2017-04-07T12:47:02.742Z,16992
2017-04-07T12:48:11.634Z,15924
2017-04-07T12:49:21.177Z,14164
2017-04-07T12:50:30.176Z,14820
2017-04-07T12:51:39.067Z,14424
2017-04-07T12:52:48.283Z,15360
2017-04-07T12:53:57.177Z,15556
2017-04-07T12:55:06.076Z,14624
2017-04-07T12:56:15.123Z,14836
2017-04-07T12:57:24.017Z,15492
2017-04-07T12:58:33.233Z,15360
2017-04-07T12:59:42.454Z,16488
2017-04-07T13:00:51.350Z,18816
2017-04-07T13:02:00.878Z,18880
2017-04-07T13:03:10.108Z,17440
2017-04-07T13:04:19.664Z,17440
2017-04-07T13:05:29.243Z,19488
2017-04-07T13:06:38.463Z,18368
2017-04-07T13:07:48.490Z,18016
2017-04-07T13:08:57.707Z,18592
2017-04-07T13:10:06.602Z,18592
2017-04-07T13:11:15.504Z,20224
2017-04-07T13:12:24.729Z,19936
2017-04-07T13:13:34.002Z,21952
2017-04-07T13:14:43.226Z,21984
2017-04-07T13:15:52.118Z,20032
2017-04-07T13:17:01.018Z,19456
2017-04-07T13:18:10.236Z,17280
2017-04-07T13:19:19.178Z,17856
2017-04-07T13:20:28.401Z,17248
2017-04-07T13:21:37.296Z,19072
2017-04-07T13:22:46.189Z,20544
2017-04-07T13:23:55.406Z,20928
2017-04-07T13:25:04.727Z,19136
2017-04-07T13:26:13.625Z,17760
2017-04-07T13:27:22.526Z,19136
2017-04-07T13:28:31.741Z,20192
2017-04-07T13:29:40.958Z,22400
2017-04-07T13:30:50.253Z,21312
2017-04-07T13:31:59.146Z,24960
2017-04-07T13:33:08.041Z,21536
2017-04-07T13:34:17.266Z,26336
2017-04-07T13:35:26.810Z,26784
2017-04-07T13:36:35.906Z,24736
2017-04-07T13:37:45.777Z,26432
2017-04-07T13:38:55.002Z,19616
2017-04-07T13:40:04.221Z,17152
2017-04-07T13:41:13.118Z,15540
2017-04-07T13:42:22.290Z,15544
2017-04-07T13:43:31.187Z,17664
2017-04-07T13:44:40.729Z,19840
2017-04-07T13:45:49.625Z,18912
2017-04-07T13:46:59.169Z,19808
2017-04-07T13:48:08.586Z,18432
2017-04-07T13:49:17.804Z,16608
2017-04-07T13:50:26.697Z,18912
2017-04-07T13:51:35.590Z,18240
2017-04-07T13:52:44.812Z,18240
2017-04-07T13:53:53.857Z,16992
2017-04-07T13:55:03.412Z,17888
2017-04-07T13:56:12.305Z,15876
2017-04-07T13:57:21.216Z,15912
2017-04-07T13:58:30.440Z,13456
2017-04-07T13:59:39.598Z,12584
2017-04-07T14:00:48.495Z,14496
2017-04-07T14:01:57.710Z,17952
2017-04-07T14:03:07.259Z,18176
2017-04-07T14:04:16.877Z,17888
2017-04-07T14:05:26.242Z,16800
2017-04-07T14:06:35.473Z,17728
2017-04-07T14:07:44.694Z,19264
2017-04-07T14:08:53.592Z,17984
2017-04-07T14:10:02.491Z,16376
2017-04-07T14:11:11.861Z,17600
2017-04-07T14:12:20.763Z,15320
2017-04-07T14:13:29.980Z,13372
2017-04-07T14:14:38.879Z,14308
2017-04-07T14:15:48.102Z,14972
2017-04-07T14:16:57.145Z,17280
2017-04-07T14:18:06.051Z,15400
2017-04-07T14:19:15.271Z,13764
2017-04-07T14:20:24.499Z,12252
2017-04-07T14:21:33.723Z,12668
2017-04-07T14:22:42.770Z,13392
2017-04-07T14:23:51.661Z,14404
2017-04-07T14:25:00.552Z,12736
2017-04-07T14:26:09.448Z,11052
2017-04-07T14:27:18.669Z,11196
2017-04-07T14:28:28.038Z,11160
2017-04-07T14:29:36.930Z,10560
2017-04-07T14:30:45.819Z,10844
2017-04-07T14:31:55.039Z,9872
2017-04-07T14:33:03.936Z,9536
2017-04-07T14:34:13.632Z,9660
2017-04-07T14:35:22.849Z,8788
2017-04-07T14:36:31.742Z,7668
2017-04-07T14:37:41.293Z,6816
2017-04-07T14:38:50.511Z,6040
2017-04-07T14:39:59.454Z,6376
2017-04-07T14:41:08.347Z,7956
2017-04-07T14:42:17.891Z,8160
2017-04-07T14:43:26.785Z,6840
2017-04-07T14:44:35.684Z,7284
2017-04-07T14:45:44.912Z,6704
2017-04-07T14:46:53.804Z,5772
2017-04-07T14:48:02.695Z,6464
2017-04-07T14:49:11.588Z,6444
2017-04-07T14:50:20.515Z,6364
2017-04-07T14:51:29.735Z,6560
2017-04-07T14:52:39.595Z,5936
2017-04-07T14:53:48.493Z,5192
2017-04-07T14:54:57.387Z,5144
2017-04-07T14:56:06.283Z,5512
2017-04-07T14:57:16.346Z,5380
2017-04-07T14:58:25.244Z,5116
2017-04-07T14:59:34.796Z,4992
2017-04-07T15:00:43.688Z,4776
2017-04-07T15:01:52.589Z,4644
2017-04-07T15:03:01.528Z,4536
2017-04-07T15:04:11.067Z,4360
2017-04-07T15:05:20.650Z,4596
2017-04-07T15:06:29.553Z,4632
2017-04-07T15:07:38.773Z,4396
2017-04-07T15:08:48.471Z,3788
2017-04-07T15:09:57.686Z,3584
2017-04-07T15:11:06.898Z,3628
2017-04-07T15:12:15.792Z,3568
2017-04-07T15:13:24.683Z,3464
2017-04-07T15:14:33.832Z,3096
2017-04-07T15:15:43.047Z,2880
2017-04-07T15:16:51.940Z,2628
2017-04-07T15:18:01.158Z,2500
2017-04-07T15:19:10.051Z,2636
2017-04-07T15:20:19.190Z,2636
2017-04-07T15:21:28.408Z,2416
2017-04-07T15:22:37.302Z,2084
2017-04-07T15:23:46.197Z,2040
2017-04-07T15:24:55.086Z,2092
2017-04-07T15:26:04.129Z,2296
2017-04-07T15:27:13.017Z,2892
2017-04-07T15:28:21.905Z,3140
2017-04-07T15:29:31.125Z,3120
2017-04-07T15:30:40.342Z,3072
2017-04-07T15:31:49.333Z,2892
2017-04-07T15:32:59.263Z,3432
2017-04-07T15:34:08.165Z,2632
2017-04-07T15:35:17.714Z,2664
2017-04-07T15:36:26.606Z,2904
2017-04-07T15:37:35.654Z,2564
2017-04-07T15:38:45.207Z,2936
2017-04-07T15:39:54.750Z,2756